Time;durP1;ratioP1;P1;durP2;ratioP2;P2;SDS_P1;SDS_P2;PMS_P1;PMS_P2;Temp;Humidity;BMP_temperature;BMP_pressure;BME280_temperature;BME280_humidity;BME280_pressure;Samples;Min_cycle;Max_cycle;Signal;HPM_P1;HPM_P2
2022/09/18 00:00:43;;;;;;;9.45;1.77;;;11.80;99.90;;;;;;5066772;28;20040;-65
2022/09/18 00:03:10;;;;;;;5.47;1.88;;;11.80;99.90;;;;;;5057446;28;20593;-66
2022/09/18 00:05:37;;;;;;;4.90;1.75;;;11.80;99.90;;;;;;5067396;28;20032;-65
2022/09/18 00:08:03;;;;;;;11.32;1.52;;;11.90;99.90;;;;;;5063861;28;20449;-66
2022/09/18 00:10:29;;;;;;;5.28;1.50;;;11.90;99.90;;;;;;5066154;28;20024;-65
2022/09/18 00:12:54;;;;;;;7.80;1.30;;;11.90;99.90;;;;;;5065557;28;20047;-66
2022/09/18 00:15:20;;;;;;;10.88;1.85;;;11.90;99.90;;;;;;5070287;28;20078;-65
2022/09/18 00:17:46;;;;;;;8.27;1.70;;;11.90;99.90;;;;;;5068442;28;20032;-65
2022/09/18 00:20:12;;;;;;;5.90;1.30;;;11.90;99.90;;;;;;5065905;28;20029;-65
2022/09/18 00:22:39;;;;;;;6.65;1.55;;;11.90;99.90;;;;;;5060934;28;20062;-66
2022/09/18 00:25:06;;;;;;;3.50;1.02;;;11.90;99.90;;;;;;5065585;28;20017;-66
2022/09/18 00:27:31;;;;;;;7.97;1.40;;;11.90;99.90;;;;;;5068508;28;20024;-65
2022/09/18 00:29:57;;;;;;;4.63;1.75;;;11.90;99.90;;;;;;5069515;28;20101;-66
2022/09/18 00:32:22;;;;;;;9.40;1.05;;;11.90;99.90;;;;;;5064912;28;20347;-64
2022/09/18 00:34:48;;;;;;;9.93;1.40;;;11.90;99.90;;;;;;5058905;28;20040;-65
2022/09/18 00:37:14;;;;;;;6.78;1.92;;;11.80;99.90;;;;;;5068364;28;20037;-65
2022/09/18 00:39:40;;;;;;;11.52;1.65;;;11.80;99.90;;;;;;5063310;28;20087;-64
2022/09/18 00:42:06;;;;;;;9.05;1.38;;;11.80;99.90;;;;;;5063319;28;20102;-65
2022/09/18 00:44:34;;;;;;;10.05;1.27;;;11.80;99.90;;;;;;5060788;28;20549;-66
2022/09/18 00:47:08;;;;;;;8.75;1.60;;;11.80;99.90;;;;;;5065793;28;20029;-64
2022/09/18 00:49:35;;;;;;;;;;;11.80;99.90;;;;;;5068242;28;20020;-66
2022/09/18 00:52:01;;;;;;;9.18;1.27;;;11.80;99.90;;;;;;5066143;28;20394;-66
2022/09/18 00:54:31;;;;;;;3.97;1.30;;;11.80;99.90;;;;;;5044437;28;20027;-65
2022/09/18 00:57:01;;;;;;;10.90;1.13;;;11.80;99.90;;;;;;5060933;28;20367;-66
2022/09/18 00:59:30;;;;;;;7.40;1.33;;;11.80;99.90;;;;;;5063354;28;20016;-66
2022/09/18 01:01:57;;;;;;;12.65;1.67;;;11.80;99.90;;;;;;5066473;28;20044;-65
2022/09/18 01:04:24;;;;;;;4.65;1.35;;;11.80;99.90;;;;;;5064492;28;20703;-65
2022/09/18 01:07:13;;;;;;;12.20;1.50;;;11.80;99.90;;;;;;5067098;28;20028;-66
2022/09/18 01:09:47;;;;;;;4.65;1.60;;;11.80;99.90;;;;;;5066885;28;20024;-66
2022/09/18 01:12:27;;;;;;;9.75;1.65;;;11.80;99.90;;;;;;5063135;28;20032;-65
2022/09/18 01:15:17;;;;;;;17.13;3.40;;;11.80;99.90;;;;;;5054748;28;20721;-66
2022/09/18 01:18:05;;;;;;;7.45;1.38;;;11.70;99.90;;;;;;5069775;28;20020;-65
2022/09/18 01:20:53;;;;;;;5.80;1.15;;;11.70;99.90;;;;;;5066773;28;20363;-65
2022/09/18 01:23:30;;;;;;;7.55;1.42;;;11.70;99.90;;;;;;5066670;28;20432;-65
2022/09/18 01:26:14;;;;;;;7.55;1.70;;;11.70;99.90;;;;;;5067533;28;20024;-65
2022/09/18 01:28:46;;;;;;;6.00;1.40;;;11.70;99.90;;;;;;5062119;28;20024;-65
2022/09/18 01:31:18;;;;;;;8.60;1.55;;;11.70;99.90;;;;;;5065313;28;20017;-65
2022/09/18 01:33:55;;;;;;;9.07;1.50;;;11.70;99.90;;;;;;5067130;28;20066;-65
2022/09/18 01:36:25;;;;;;;8.43;1.60;;;11.70;99.90;;;;;;5061657;28;20020;-65
2022/09/18 01:39:08;;;;;;;13.93;1.77;;;11.70;99.90;;;;;;5065066;28;20024;-66
2022/09/18 01:41:38;;;;;;;7.10;1.50;;;11.70;99.90;;;;;;5066632;28;20093;-65
2022/09/18 01:44:10;;;;;;;5.57;1.85;;;11.80;99.90;;;;;;5067887;28;20063;-66
2022/09/18 01:46:38;;;;;;;18.48;1.80;;;11.70;99.90;;;;;;5066636;28;20103;-66
2022/09/18 01:49:09;;;;;;;8.18;1.38;;;11.70;99.90;;;;;;5067911;28;20040;-66
2022/09/18 01:51:48;;;;;;;12.68;1.90;;;11.70;99.90;;;;;;5066409;28;20066;-70
2022/09/18 01:54:21;;;;;;;11.23;1.95;;;11.70;99.90;;;;;;5066439;28;20023;-66
2022/09/18 01:57:04;;;;;;;4.78;1.10;;;11.70;99.90;;;;;;5066218;28;20029;-65
2022/09/18 01:59:38;;;;;;;12.52;1.80;;;11.70;99.90;;;;;;5067116;28;20017;-66
2022/09/18 02:02:07;;;;;;;9.73;1.97;;;11.70;99.90;;;;;;5068291;28;20040;-64
2022/09/18 02:04:37;;;;;;;10.52;1.73;;;11.70;99.90;;;;;;5068148;28;20085;-65
2022/09/18 02:07:25;;;;;;;8.48;1.33;;;11.70;99.90;;;;;;5067565;28;20032;-64
2022/09/18 02:09:51;;;;;;;6.05;1.50;;;11.60;99.90;;;;;;5067150;28;20079;-66
2022/09/18 02:12:20;;;;;;;4.10;1.10;;;11.60;99.90;;;;;;5068683;28;20021;-64
2022/09/18 02:14:49;;;;;;;5.03;1.17;;;11.60;99.90;;;;;;5064534;28;20017;-66
2022/09/18 02:17:26;;;;;;;7.72;2.35;;;11.60;99.90;;;;;;5067462;28;20024;-66
2022/09/18 02:19:57;;;;;;;11.43;1.50;;;11.70;99.90;;;;;;5065795;28;20033;-66
2022/09/18 02:22:29;;;;;;;14.35;1.98;;;11.60;99.90;;;;;;5066670;28;20028;-66
2022/09/18 02:24:58;;;;;;;7.18;1.30;;;11.60;99.90;;;;;;5066485;28;20410;-66
2022/09/18 02:27:24;;;;;;;10.35;1.90;;;11.60;99.90;;;;;;5061477;28;20508;-66
2022/09/18 02:29:50;;;;;;;2.22;1.50;;;11.60;99.90;;;;;;5066849;28;20106;-65
2022/09/18 02:32:16;;;;;;;9.20;1.80;;;11.60;99.90;;;;;;5066987;28;20055;-65
2022/09/18 02:34:42;;;;;;;10.18;1.98;;;11.60;99.90;;;;;;5062436;28;20035;-66
2022/09/18 02:37:22;;;;;;;6.10;1.45;;;11.60;99.90;;;;;;5066854;28;20036;-66
2022/09/18 02:40:16;;;;;;;7.75;2.35;;;11.60;99.90;;;;;;5084746;22;20048;-61
2022/09/18 02:43:10;;;;;;;7.30;2.10;;;11.60;99.90;;;;;;5078316;28;20024;-61
2022/09/18 02:46:00;;;;;;;6.53;2.00;;;11.60;99.90;;;;;;5082031;28;20389;-61
2022/09/18 02:48:46;;;;;;;4.70;2.17;;;11.60;99.90;;;;;;5085338;28;20506;-61
2022/09/18 02:51:26;;;;;;;6.75;2.58;;;11.60;99.90;;;;;;5066921;28;20025;-60
2022/09/18 02:54:03;;;;;;;5.53;2.67;;;11.60;99.90;;;;;;5064959;28;20082;-62
2022/09/18 02:56:54;;;;;;;5.53;2.25;;;11.60;99.90;;;;;;5063017;28;20079;-61
2022/09/18 02:59:37;;;;;;;11.98;2.47;;;11.60;99.90;;;;;;5065752;28;20024;-60
2022/09/18 03:02:05;;;;;;;6.47;2.35;;;11.60;99.90;;;;;;5069450;28;20028;-62
2022/09/18 03:04:30;;;;;;;5.60;2.25;;;11.60;99.90;;;;;;5071825;28;20087;-59
2022/09/18 03:06:56;;;;;;;6.32;2.35;;;11.60;99.90;;;;;;5066946;28;20037;-62
2022/09/18 03:09:22;;;;;;;6.60;2.30;;;11.60;99.90;;;;;;5063910;28;20036;-62
2022/09/18 03:11:49;;;;;;;6.90;2.60;;;11.60;99.90;;;;;;5068932;28;20024;-62
2022/09/18 03:14:14;;;;;;;7.60;2.22;;;11.60;99.90;;;;;;5060409;28;20020;-60
2022/09/18 03:16:40;;;;;;;7.45;2.85;;;11.60;99.90;;;;;;5067415;28;20039;-62
2022/09/18 03:19:06;;;;;;;8.20;3.00;;;11.50;99.90;;;;;;5069301;28;20024;-61
2022/09/18 03:21:31;;;;;;;10.50;2.97;;;11.50;99.90;;;;;;5069218;28;20399;-61
2022/09/18 03:23:57;;;;;;;4.93;2.33;;;11.50;99.90;;;;;;5064419;28;20107;-62
2022/09/18 03:26:22;;;;;;;10.20;2.47;;;11.50;99.90;;;;;;5063636;28;20418;-61
2022/09/18 03:28:48;;;;;;;7.38;2.28;;;11.50;99.90;;;;;;5066730;28;20040;-61
2022/09/18 03:31:14;;;;;;;11.32;2.35;;;11.50;99.90;;;;;;5067248;28;20028;-63
2022/09/18 03:33:39;;;;;;;7.18;2.47;;;11.50;99.90;;;;;;5065378;28;20023;-61
2022/09/18 03:36:05;;;;;;;6.18;2.35;;;11.50;99.90;;;;;;5069425;28;20085;-61
2022/09/18 03:38:31;;;;;;;6.38;2.47;;;11.50;99.90;;;;;;5065920;28;20540;-60
2022/09/18 03:40:58;;;;;;;11.93;2.85;;;11.50;99.90;;;;;;5067473;28;20123;-62
2022/09/18 03:43:24;;;;;;;11.02;2.38;;;11.60;99.90;;;;;;5066829;28;20032;-61
2022/09/18 03:45:50;;;;;;;11.00;2.50;;;11.50;99.90;;;;;;5068246;28;20036;-62
2022/09/18 03:48:15;;;;;;;8.32;2.00;;;11.50;99.90;;;;;;5067267;28;20498;-61
2022/09/18 03:50:41;;;;;;;7.70;1.98;;;11.50;99.90;;;;;;5067574;28;20060;-61
2022/09/18 03:53:10;;;;;;;10.68;2.10;;;11.50;99.90;;;;;;5066405;28;20427;-60
2022/09/18 03:55:36;;;;;;;11.95;1.90;;;11.50;99.90;;;;;;5060882;28;20020;-61
2022/09/18 03:58:02;;;;;;;5.88;2.10;;;11.50;99.90;;;;;;5065903;28;20024;-59
2022/09/18 04:00:28;;;;;;;13.68;1.85;;;11.50;99.90;;;;;;5065125;28;20028;-60
2022/09/18 04:02:53;;;;;;;5.88;1.70;;;11.50;99.90;;;;;;5066837;28;20090;-61
2022/09/18 04:05:19;;;;;;;9.23;2.03;;;11.50;99.90;;;;;;5068874;28;20032;-61
2022/09/18 04:07:45;;;;;;;9.35;1.50;;;11.50;99.90;;;;;;5069533;28;20508;-60
2022/09/18 04:10:10;;;;;;;6.63;1.40;;;11.50;99.90;;;;;;5071727;28;20033;-60
2022/09/18 04:12:36;;;;;;;13.30;1.80;;;11.50;99.90;;;;;;5066481;28;20055;-59
2022/09/18 04:15:01;;;;;;;6.70;1.88;;;11.50;99.90;;;;;;5069417;28;20688;-59
2022/09/18 04:17:27;;;;;;;6.72;1.83;;;11.50;99.90;;;;;;5069477;28;20033;-60
2022/09/18 04:19:53;;;;;;;8.85;1.30;;;11.50;99.90;;;;;;5067511;28;20067;-59
2022/09/18 04:22:19;;;;;;;3.13;1.20;;;11.50;99.90;;;;;;5065517;28;20379;-60
2022/09/18 04:24:45;;;;;;;10.48;1.52;;;11.50;99.90;;;;;;5065563;28;20024;-62
2022/09/18 04:27:11;;;;;;;12.50;1.67;;;11.50;99.90;;;;;;5067631;28;20448;-61
2022/09/18 04:29:36;;;;;;;6.97;1.80;;;11.50;99.90;;;;;;5069053;28;20039;-61
2022/09/18 04:32:02;;;;;;;9.45;1.90;;;11.50;99.90;;;;;;5064808;28;20024;-61
2022/09/18 04:34:27;;;;;;;8.07;1.67;;;11.50;99.90;;;;;;5063744;28;20021;-61
2022/09/18 04:36:53;;;;;;;5.10;1.40;;;11.50;99.90;;;;;;5066340;28;20037;-61
2022/09/18 04:39:18;;;;;;;5.88;1.30;;;11.50;99.90;;;;;;5065408;28;20036;-61
2022/09/18 04:41:44;;;;;;;4.72;1.63;;;11.50;99.90;;;;;;5058207;28;20020;-61
2022/09/18 04:44:10;;;;;;;5.80;1.40;;;11.50;99.90;;;;;;5061708;28;20028;-61
2022/09/18 04:46:36;;;;;;;9.40;1.98;;;11.50;99.90;;;;;;5052833;28;20495;-59
2022/09/18 04:49:01;;;;;;;5.63;1.77;;;11.40;99.90;;;;;;5056952;28;20043;-61
2022/09/18 04:51:27;;;;;;;6.97;2.13;;;11.40;99.90;;;;;;5060327;28;20025;-61
2022/09/18 04:53:52;;;;;;;8.63;2.45;;;11.40;99.90;;;;;;5052504;28;20399;-59
2022/09/18 04:56:18;;;;;;;7.25;2.83;;;11.40;99.90;;;;;;5060866;28;20029;-60
2022/09/18 04:58:44;;;;;;;18.58;3.33;;;11.40;99.90;;;;;;5053328;28;20482;-60
2022/09/18 05:01:09;;;;;;;10.65;3.38;;;11.40;99.90;;;;;;5061538;28;20028;-59
2022/09/18 05:03:35;;;;;;;9.75;3.60;;;11.40;99.90;;;;;;5059634;28;20597;-61
2022/09/18 05:06:01;;;;;;;13.18;2.83;;;11.40;99.90;;;;;;5056117;28;20028;-61
2022/09/18 05:08:28;;;;;;;11.75;3.78;;;11.40;99.90;;;;;;5053342;28;20483;-61
2022/09/18 05:10:54;;;;;;;9.93;3.72;;;11.40;99.90;;;;;;5055387;28;20032;-62
2022/09/18 05:13:19;;;;;;;9.27;3.65;;;11.40;99.90;;;;;;5055278;28;20020;-62
2022/09/18 05:15:46;;;;;;;13.98;4.20;;;11.40;99.90;;;;;;5058359;28;20127;-61
2022/09/18 05:18:12;;;;;;;13.50;4.50;;;11.40;99.90;;;;;;5061930;28;20439;-62
2022/09/18 05:20:38;;;;;;;11.13;3.95;;;11.40;99.90;;;;;;5050890;28;20024;-62
2022/09/18 05:23:04;;;;;;;10.30;3.78;;;11.40;99.90;;;;;;5062257;28;20025;-61
2022/09/18 05:25:29;;;;;;;13.80;3.53;;;11.40;99.90;;;;;;5060696;28;20585;-61
2022/09/18 05:27:57;;;;;;;8.48;3.63;;;11.40;99.90;;;;;;5053286;28;20025;-61
2022/09/18 05:30:24;;;;;;;10.10;3.22;;;11.40;99.90;;;;;;5063861;28;20028;-62
2022/09/18 05:32:56;;;;;;;11.35;2.95;;;11.40;99.90;;;;;;5058050;28;20574;-61
2022/09/18 05:35:23;;;;;;;6.40;2.35;;;11.40;99.90;;;;;;5056228;28;20021;-62
2022/09/18 05:37:50;;;;;;;14.50;3.03;;;11.40;99.90;;;;;;5056309;28;20091;-62
2022/09/18 05:40:16;;;;;;;8.55;2.75;;;11.50;99.90;;;;;;5066164;28;20029;-62
2022/09/18 05:42:46;;;;;;;8.50;2.90;;;11.50;99.90;;;;;;5065106;28;20032;-61
2022/09/18 05:45:12;;;;;;;7.40;2.75;;;11.50;99.90;;;;;;5055719;28;20048;-61
2022/09/18 05:47:38;;;;;;;9.80;2.78;;;11.50;99.90;;;;;;5054107;28;20360;-61
2022/09/18 05:50:05;;;;;;;8.50;2.55;;;11.50;99.90;;;;;;5054844;28;20055;-62
2022/09/18 05:52:30;;;;;;;7.78;2.45;;;11.50;99.90;;;;;;5056939;28;20029;-62
2022/09/18 05:54:56;;;;;;;8.88;2.05;;;11.50;99.90;;;;;;5052891;28;20037;-62
2022/09/18 05:57:21;;;;;;;10.10;2.20;;;11.60;99.90;;;;;;5053370;28;20021;-62
2022/09/18 05:59:47;;;;;;;9.20;2.90;;;11.60;99.90;;;;;;5058138;28;20392;-60
2022/09/18 06:02:12;;;;;;;12.82;3.90;;;11.60;99.90;;;;;;5050001;28;20102;-61
2022/09/18 06:04:38;;;;;;;15.32;3.45;;;11.60;99.90;;;;;;5049877;28;20036;-59
2022/09/18 06:07:04;;;;;;;11.02;3.58;;;11.60;99.90;;;;;;5053968;28;20094;-61
2022/09/18 06:09:30;;;;;;;12.18;3.85;;;11.60;99.90;;;;;;5050833;28;20025;-60
2022/09/18 06:11:56;;;;;;;13.02;4.15;;;11.60;99.90;;;;;;5055553;28;20402;-61
2022/09/18 06:14:22;;;;;;;16.02;4.22;;;11.60;99.90;;;;;;5053603;28;20033;-61
2022/09/18 06:16:48;;;;;;;11.50;3.90;;;11.60;99.90;;;;;;5050106;28;20033;-61
2022/09/18 06:19:13;;;;;;;7.60;3.72;;;11.50;99.90;;;;;;5050004;28;20406;-61
2022/09/18 06:21:39;;;;;;;6.13;2.88;;;11.50;99.90;;;;;;5056434;28;20025;-61
2022/09/18 06:24:05;;;;;;;12.13;3.45;;;11.50;99.90;;;;;;5050713;28;20039;-60
2022/09/18 06:26:31;;;;;;;15.95;2.80;;;11.60;99.90;;;;;;5057593;28;20386;-60
2022/09/18 06:28:57;;;;;;;5.72;2.55;;;11.60;99.90;;;;;;5051092;28;20629;-61
2022/09/18 06:31:22;;;;;;;11.95;2.55;;;11.60;99.90;;;;;;5050701;28;20032;-63
2022/09/18 06:33:48;;;;;;;9.30;3.22;;;11.60;99.90;;;;;;5049514;28;20040;-60
2022/09/18 06:36:15;;;;;;;17.27;3.45;;;11.60;99.90;;;;;;5055878;28;20017;-62
2022/09/18 06:38:40;;;;;;;12.20;3.15;;;11.70;99.90;;;;;;5049977;28;20046;-61
2022/09/18 06:41:07;;;;;;;6.80;2.92;;;11.70;99.90;;;;;;5050162;28;20044;-61
2022/09/18 06:43:33;;;;;;;8.27;3.08;;;11.70;99.90;;;;;;5052442;28;20122;-62
2022/09/18 06:45:59;;;;;;;9.13;3.08;;;11.70;99.90;;;;;;5049689;28;20025;-61
2022/09/18 06:48:25;;;;;;;7.53;2.60;;;11.70;99.90;;;;;;5050402;28;20033;-62
2022/09/18 06:50:56;;;;;;;17.00;3.80;;;11.80;99.90;;;;;;5059276;28;20017;-61
2022/09/18 06:53:22;;;;;;;13.30;3.42;;;11.70;99.90;;;;;;5057251;28;20021;-62
2022/09/18 06:55:48;;;;;;;9.80;2.60;;;11.70;99.90;;;;;;5057164;28;20028;-62
2022/09/18 06:58:16;;;;;;;12.10;3.08;;;11.70;99.90;;;;;;5056481;28;20093;-62
2022/09/18 07:00:42;;;;;;;13.75;3.05;;;11.70;99.90;;;;;;5049479;28;20394;-61
2022/09/18 07:03:08;;;;;;;11.32;2.95;;;11.80;99.90;;;;;;5056193;28;20032;-60
2022/09/18 07:05:33;;;;;;;10.75;2.55;;;11.70;99.90;;;;;;5059638;28;20020;-62
2022/09/18 07:08:00;;;;;;;9.15;3.15;;;11.70;99.90;;;;;;5055737;28;20036;-60
2022/09/18 07:10:26;;;;;;;13.18;2.90;;;11.80;99.90;;;;;;5050108;28;20055;-60
2022/09/18 07:12:55;;;;;;;9.27;2.85;;;11.90;99.90;;;;;;5055827;28;20029;-60
2022/09/18 07:15:21;;;;;;;11.48;3.80;;;11.90;99.90;;;;;;5060537;28;20100;-62
2022/09/18 07:17:47;;;;;;;8.20;2.30;;;11.80;99.90;;;;;;5054193;28;20097;-62
2022/09/18 07:20:13;;;;;;;9.80;2.58;;;11.70;99.90;;;;;;5049573;28;20029;-62
2022/09/18 07:22:39;;;;;;;18.77;2.80;;;11.60;99.90;;;;;;5064660;28;20029;-62
2022/09/18 07:25:05;;;;;;;10.55;2.80;;;11.70;99.90;;;;;;5055834;28;20427;-63
2022/09/18 07:27:31;;;;;;;16.00;3.47;;;11.60;99.90;;;;;;5052892;28;20390;-62
2022/09/18 07:29:57;;;;;;;19.30;3.20;;;11.70;99.90;;;;;;5052705;28;20029;-61
2022/09/18 07:32:23;;;;;;;8.50;2.47;;;11.70;99.90;;;;;;5061144;28;20033;-62
2022/09/18 07:34:49;;;;;;;7.85;2.75;;;11.70;99.90;;;;;;5061898;28;20017;-62
2022/09/18 07:37:15;;;;;;;8.50;2.80;;;11.70;99.90;;;;;;5059057;28;20074;-61
2022/09/18 07:39:42;;;;;;;9.88;2.72;;;11.80;99.90;;;;;;5060368;28;20108;-62
2022/09/18 07:42:11;;;;;;;10.50;3.22;;;11.80;99.90;;;;;;5057225;28;20593;-60
2022/09/18 07:44:37;;;;;;;4.43;2.33;;;11.80;99.90;;;;;;5056362;28;20029;-61
2022/09/18 07:47:03;;;;;;;14.93;3.20;;;11.80;99.90;;;;;;5053302;28;20048;-62
2022/09/18 07:49:28;;;;;;;10.60;2.22;;;11.80;99.90;;;;;;5052691;28;20029;-61
2022/09/18 07:51:54;;;;;;;8.88;2.40;;;11.80;99.90;;;;;;5056035;28;20036;-60
2022/09/18 07:54:19;;;;;;;10.32;2.80;;;11.80;99.90;;;;;;5058134;28;20768;-62
2022/09/18 07:56:45;;;;;;;15.07;3.58;;;11.90;99.90;;;;;;5061508;28;20031;-62
2022/09/18 07:59:10;;;;;;;8.18;2.22;;;12.00;99.90;;;;;;5055378;28;20039;-60
2022/09/18 08:01:36;;;;;;;11.68;2.53;;;12.00;99.90;;;;;;5064442;28;20032;-61
2022/09/18 08:04:02;;;;;;;5.20;2.17;;;12.00;99.90;;;;;;5052741;28;20104;-61
2022/09/18 08:06:29;;;;;;;8.38;1.63;;;12.10;99.90;;;;;;5052153;28;20028;-61
2022/09/18 08:08:55;;;;;;;11.40;2.33;;;12.20;99.90;;;;;;5065138;28;20107;-62
2022/09/18 08:11:21;;;;;;;5.55;1.75;;;12.20;99.90;;;;;;5057377;28;20045;-62
2022/09/18 08:13:50;;;;;;;8.93;1.85;;;12.30;99.90;;;;;;5053232;28;20072;-62
2022/09/18 08:16:15;;;;;;;4.80;1.70;;;12.40;99.90;;;;;;5051032;28;20029;-61
2022/09/18 08:18:41;;;;;;;6.18;1.60;;;12.40;99.90;;;;;;5054224;28;20033;-61
2022/09/18 08:21:07;;;;;;;10.45;1.50;;;12.40;99.90;;;;;;5054376;28;20044;-60
2022/09/18 08:23:33;;;;;;;6.07;2.65;;;12.40;99.90;;;;;;5055803;28;20098;-62
2022/09/18 08:26:00;;;;;;;9.82;2.30;;;12.50;99.90;;;;;;5058283;28;20429;-62
2022/09/18 08:28:26;;;;;;;6.03;1.42;;;12.50;99.90;;;;;;5052070;28;20086;-61
2022/09/18 08:30:52;;;;;;;2.25;0.90;;;12.60;99.90;;;;;;5051849;28;20023;-61
2022/09/18 08:33:18;;;;;;;4.65;1.35;;;12.70;99.90;;;;;;5053457;28;20102;-62
2022/09/18 08:35:43;;;;;;;5.68;1.55;;;12.60;99.90;;;;;;5051604;28;20514;-62
2022/09/18 08:38:10;;;;;;;4.07;1.80;;;12.70;99.90;;;;;;5058420;28;20025;-61
2022/09/18 08:40:57;;;;;;;7.05;2.22;;;12.80;99.90;;;;;;5080218;22;20079;-64
2022/09/18 08:44:03;;;;;;;2.92;1.90;;;12.90;99.90;;;;;;5070015;28;20048;-67
2022/09/18 08:46:44;;;;;;;5.55;2.78;;;12.90;99.90;;;;;;5053957;28;20036;-67
2022/09/18 08:49:33;;;;;;;7.60;3.13;;;12.90;99.90;;;;;;5068959;28;20441;-67
2022/09/18 08:52:21;;;;;;;7.95;4.32;;;12.90;99.90;;;;;;5050950;28;20422;-66
2022/09/18 08:54:50;;;;;;;9.48;2.92;;;12.90;99.90;;;;;;5047275;28;20025;-65
2022/09/18 08:57:31;;;;;;;4.70;3.30;;;12.90;99.90;;;;;;5049008;28;20025;-64
2022/09/18 09:00:00;;;;;;;4.97;2.72;;;12.90;99.90;;;;;;5046076;28;20048;-64
2022/09/18 09:02:37;;;;;;;10.80;4.22;;;12.90;99.90;;;;;;5049322;28;20022;-64
2022/09/18 09:05:17;;;;;;;8.68;3.92;;;12.90;99.90;;;;;;5050392;28;20067;-64
2022/09/18 09:07:49;;;;;;;11.70;3.67;;;12.90;99.90;;;;;;5053143;28;20111;-64
2022/09/18 09:10:41;;;;;;;11.93;2.53;;;13.00;99.90;;;;;;5050781;28;20052;-65
2022/09/18 09:13:50;;;;;;;7.85;2.90;;;12.90;99.90;;;;;;5044362;28;20036;-64
2022/09/18 09:16:39;;;;;;;10.23;2.45;;;13.10;99.90;;;;;;5027092;28;20039;-65
2022/09/18 09:19:25;;;;;;;8.77;2.58;;;13.20;99.90;;;;;;5031473;28;20032;-66
2022/09/18 09:22:04;;;;;;;5.30;2.55;;;13.10;99.90;;;;;;5046093;28;20657;-66
2022/09/18 09:25:02;;;;;;;10.93;2.00;;;13.10;99.90;;;;;;5036783;28;20035;-67
2022/09/18 09:27:35;;;;;;;8.57;2.13;;;13.10;99.90;;;;;;5048055;28;20037;-68
2022/09/18 09:30:10;;;;;;;7.60;2.30;;;13.10;99.90;;;;;;5039981;28;20033;-66
2022/09/18 09:32:46;;;;;;;7.63;1.80;;;13.00;99.90;;;;;;5043311;28;20027;-66
2022/09/18 09:35:24;;;;;;;7.25;1.70;;;12.80;99.90;;;;;;5046809;28;20072;-66
2022/09/18 09:37:50;;;;;;;5.10;1.80;;;12.60;99.90;;;;;;5045084;28;20017;-66
2022/09/18 09:40:22;;;;;;;13.55;2.17;;;12.60;99.90;;;;;;5043240;28;20060;-67
2022/09/18 09:43:04;;;;;;;6.05;1.83;;;12.50;99.90;;;;;;5041813;28;20037;-66
2022/09/18 09:45:41;;;;;;;5.40;2.65;;;12.40;99.90;;;;;;5043714;28;20096;-66
2022/09/18 09:48:23;;;;;;;11.32;2.70;;;12.40;99.90;;;;;;5042722;28;20032;-67
2022/09/18 09:51:17;;;;;;;7.68;2.33;;;12.40;99.90;;;;;;5045248;28;20517;-66
2022/09/18 09:53:43;;;;;;;5.17;2.80;;;12.50;99.90;;;;;;5040350;28;20034;-66
2022/09/18 09:56:31;;;;;;;7.28;2.83;;;12.50;99.90;;;;;;5038761;28;20112;-67
2022/09/18 09:59:04;;;;;;;6.50;2.80;;;12.60;99.90;;;;;;5042530;28;20036;-67
2022/09/18 10:01:41;;;;;;;9.18;2.45;;;12.80;99.90;;;;;;5040539;28;20033;-66
2022/09/18 10:04:25;;;;;;;5.32;2.38;;;12.80;99.90;;;;;;5041598;28;20021;-67
2022/09/18 10:06:58;;;;;;;8.60;2.65;;;13.00;99.90;;;;;;5040394;28;20033;-66
2022/09/18 10:09:38;;;;;;;2.78;2.33;;;13.10;99.90;;;;;;5044597;28;20025;-66
2022/09/18 10:12:41;;;;;;;10.75;2.17;;;13.10;99.90;;;;;;5037173;28;20025;-66
2022/09/18 10:15:25;;;;;;;10.52;2.20;;;13.20;99.90;;;;;;5043044;28;20033;-68
2022/09/18 10:17:55;;;;;;;5.38;2.25;;;13.10;99.90;;;;;;5038649;28;20106;-66
2022/09/18 10:20:26;;;;;;;5.45;2.67;;;13.20;99.90;;;;;;5046507;28;20036;-67
2022/09/18 10:22:54;;;;;;;3.42;2.13;;;13.10;99.90;;;;;;5043713;28;20056;-67
2022/09/18 10:25:29;;;;;;;8.23;2.17;;;13.10;99.90;;;;;;5040598;28;20380;-67
2022/09/18 10:27:54;;;;;;;3.05;1.63;;;12.90;99.90;;;;;;5044431;28;20048;-68
2022/09/18 10:30:20;;;;;;;7.47;1.92;;;12.80;99.90;;;;;;5046249;28;20041;-66
2022/09/18 10:32:45;;;;;;;4.30;1.70;;;12.70;99.90;;;;;;5042168;28;20086;-67
2022/09/18 10:35:28;;;;;;;2.45;1.60;;;12.60;99.90;;;;;;5043616;28;20025;-67
2022/09/18 10:37:55;;;;;;;3.00;1.73;;;12.50;99.90;;;;;;5042022;28;20600;-66
2022/09/18 10:40:38;;;;;;;11.82;2.00;;;12.40;99.90;;;;;;5037527;28;20037;-68
2022/09/18 10:43:06;;;;;;;6.53;1.93;;;12.40;99.90;;;;;;5040473;28;20509;-67
2022/09/18 10:45:40;;;;;;;5.22;1.80;;;12.30;99.90;;;;;;5036591;28;20284;-67
2022/09/18 10:48:13;;;;;;;8.02;2.28;;;12.40;99.90;;;;;;5042824;28;20031;-66
2022/09/18 10:50:50;;;;;;;6.32;2.72;;;12.50;99.90;;;;;;5039313;28;20043;-67
2022/09/18 10:53:33;;;;;;;6.88;2.85;;;12.50;99.90;;;;;;5037908;28;20040;-68
2022/09/18 10:56:04;;;;;;;11.48;2.83;;;12.60;99.90;;;;;;5036563;28;20031;-67
2022/09/18 10:58:32;;;;;;;7.03;2.53;;;12.70;99.90;;;;;;5045562;28;20029;-67
2022/09/18 11:01:01;;;;;;;7.05;1.98;;;12.70;99.90;;;;;;5045802;28;20033;-66
2022/09/18 11:03:40;;;;;;;5.82;2.28;;;12.70;99.90;;;;;;5039962;28;20047;-65
2022/09/18 11:06:17;;;;;;;5.53;1.63;;;12.70;99.90;;;;;;5036476;28;20115;-65
2022/09/18 11:08:48;;;;;;;5.55;1.98;;;12.70;99.90;;;;;;5041771;28;20033;-66
2022/09/18 11:11:29;;;;;;;5.90;1.80;;;12.80;99.90;;;;;;5053399;28;20025;-67
2022/09/18 11:14:14;;;;;;;3.97;1.88;;;12.80;99.90;;;;;;5056890;28;20029;-65
2022/09/18 11:16:48;;;;;;;6.40;2.03;;;12.80;99.90;;;;;;5042187;28;20013;-66
2022/09/18 11:19:25;;;;;;;5.22;2.08;;;12.80;99.90;;;;;;5043817;28;20037;-67
2022/09/18 11:21:54;;;;;;;4.57;1.33;;;12.60;99.90;;;;;;5045168;28;20432;-67
2022/09/18 11:24:34;;;;;;;6.05;2.03;;;12.50;99.90;;;;;;5040637;28;20056;-66
2022/09/18 11:27:02;;;;;;;5.88;1.58;;;12.40;99.90;;;;;;5044401;28;20051;-66
2022/09/18 11:29:38;;;;;;;6.82;1.40;;;12.40;99.90;;;;;;5048897;28;20111;-69
2022/09/18 11:32:17;;;;;;;7.88;1.90;;;12.30;99.90;;;;;;5043504;28;20025;-67
2022/09/18 11:34:50;;;;;;;5.20;1.60;;;12.30;99.90;;;;;;5044608;28;20033;-70
2022/09/18 11:37:29;;;;;;;4.95;2.17;;;12.30;99.90;;;;;;5039565;28;20033;-66
2022/09/18 11:40:15;;;;;;;4.45;2.13;;;12.30;99.90;;;;;;5040773;28;20037;-66
2022/09/18 11:42:45;;;;;;;6.35;1.95;;;12.30;99.90;;;;;;5041018;28;20045;-68
2022/09/18 11:45:36;;;;;;;2.38;1.65;;;12.40;99.90;;;;;;5045204;28;20429;-67
2022/09/18 11:48:26;;;;;;;3.88;2.00;;;12.40;99.90;;;;;;5039989;28;20032;-67
2022/09/18 11:50:55;;;;;;;6.97;2.35;;;12.30;99.90;;;;;;5045866;28;20028;-66
2022/09/18 11:53:41;;;;;;;11.32;2.60;;;12.30;99.90;;;;;;5045749;28;20025;-66
2022/09/18 11:56:16;;;;;;;6.50;2.83;;;12.30;99.90;;;;;;5044082;28;20395;-69
2022/09/18 11:58:44;;;;;;;9.40;3.15;;;12.30;99.90;;;;;;5048583;28;20028;-67
2022/09/18 12:01:29;;;;;;;10.85;3.67;;;12.30;99.90;;;;;;5041510;28;20105;-67
2022/09/18 12:04:15;;;;;;;13.63;3.33;;;12.30;99.90;;;;;;5043551;28;20025;-67
2022/09/18 12:06:52;;;;;;;6.53;3.20;;;12.30;99.90;;;;;;5041091;28;20029;-68
2022/09/18 12:09:42;;;;;;;8.50;2.40;;;12.40;99.90;;;;;;5042728;28;20032;-65
2022/09/18 12:12:14;;;;;;;7.95;2.42;;;12.50;99.90;;;;;;5040669;28;20032;-67
2022/09/18 12:14:46;;;;;;;7.78;2.83;;;12.60;99.90;;;;;;5046046;28;20487;-68
2022/09/18 12:17:20;;;;;;;5.22;3.10;;;12.60;99.90;;;;;;5042251;28;20483;-66
2022/09/18 12:19:55;;;;;;;5.53;2.90;;;12.80;99.90;;;;;;5043811;28;20755;-66
2022/09/18 12:22:48;;;;;;;7.35;2.50;;;12.80;99.90;;;;;;5046883;28;20033;-68
2022/09/18 12:25:15;;;;;;;7.60;2.25;;;13.00;99.90;;;;;;5039195;28;20044;-66
2022/09/18 12:27:54;;;;;;;9.02;2.40;;;13.20;99.90;;;;;;5041715;28;20078;-67
2022/09/18 12:30:27;;;;;;;5.90;1.92;;;13.30;99.90;;;;;;5043956;28;20442;-66
2022/09/18 12:33:00;;;;;;;4.70;1.65;;;13.30;99.90;;;;;;5036702;28;21801;-65
2022/09/18 12:35:59;;;;;;;5.05;1.70;;;13.40;99.90;;;;;;5041230;28;20105;-67
2022/09/18 12:38:46;;;;;;;8.18;1.90;;;13.50;99.90;;;;;;5057420;28;20021;-65
2022/09/18 12:41:43;;;;;;;5.63;1.80;;;13.60;99.90;;;;;;5040125;28;20035;-66
2022/09/18 12:44:21;;;;;;;6.00;2.25;;;13.70;99.90;;;;;;5042279;28;20170;-65
2022/09/18 12:47:27;;;;;;;9.73;2.08;;;13.70;99.90;;;;;;5047516;28;20021;-67
2022/09/18 12:50:22;;;;;;;4.75;2.20;;;13.90;99.90;;;;;;5040344;28;20633;-67
2022/09/18 12:53:06;;;;;;;3.22;2.00;;;14.00;99.90;;;;;;5037513;28;20017;-67
2022/09/18 12:55:50;;;;;;;4.00;2.17;;;14.00;99.90;;;;;;5044809;28;20021;-66
2022/09/18 12:58:44;;;;;;;6.85;2.05;;;14.00;99.90;;;;;;5043930;28;20025;-65
2022/09/18 13:01:48;;;;;;;5.35;1.98;;;13.90;99.90;;;;;;5043041;28;20021;-65
2022/09/18 13:04:35;;;;;;;4.65;1.73;;;13.70;99.90;;;;;;5044765;28;20044;-66
2022/09/18 13:07:12;;;;;;;8.38;1.88;;;13.60;99.90;;;;;;5041691;28;20033;-66